createdAt,value
2019-03-01T00:02:12.281Z,9.90
2019-03-01T00:04:52.836Z,9.90
2019-03-01T00:07:37.601Z,9.90
2019-03-01T00:10:08.953Z,9.80
2019-03-01T00:12:43.064Z,9.80
2019-03-01T00:15:20.329Z,9.80
2019-03-01T00:17:48.693Z,9.90
2019-03-01T00:20:22.912Z,9.90
2019-03-01T00:22:57.277Z,9.90
2019-03-01T00:25:37.767Z,9.90
2019-03-01T00:28:06.115Z,9.80
2019-03-01T00:30:43.475Z,9.90
2019-03-01T00:33:23.948Z,9.90
2019-03-01T00:36:10.481Z,9.90
2019-03-01T00:38:38.835Z,9.90
2019-03-01T00:41:16.274Z,9.90
2019-03-01T00:43:59.533Z,9.80
2019-03-01T00:46:26.151Z,9.80
2019-03-01T00:48:52.678Z,9.80
2019-03-01T00:51:19.233Z,9.70
2019-03-01T00:53:45.749Z,9.70
2019-03-01T00:56:12.308Z,9.70
2019-03-01T00:58:38.924Z,9.70
2019-03-01T01:01:05.586Z,9.70
2019-03-01T01:03:32.097Z,9.70
2019-03-01T01:05:58.648Z,9.70
2019-03-01T01:08:25.209Z,9.50
2019-03-01T01:10:51.739Z,9.50
2019-03-01T01:13:18.298Z,9.50
2019-03-01T01:15:44.863Z,9.40
2019-03-01T01:18:11.374Z,9.40
2019-03-01T01:20:37.924Z,9.40
2019-03-01T01:23:04.444Z,9.40
2019-03-01T01:25:31.041Z,9.40
2019-03-01T01:27:57.600Z,9.30
2019-03-01T01:30:24.120Z,9.30
2019-03-01T01:32:50.679Z,9.30
2019-03-01T01:35:17.197Z,9.30
2019-03-01T01:37:43.748Z,9.20
2019-03-01T01:40:10.269Z,9.20
2019-03-01T01:42:36.825Z,9.20
2019-03-01T01:45:04.484Z,9.10
2019-03-01T01:47:31.004Z,9.10
2019-03-01T01:49:57.556Z,9.00
2019-03-01T01:52:24.077Z,9.00
2019-03-01T01:54:50.633Z,8.90
2019-03-01T01:57:17.150Z,8.80
2019-03-01T01:59:43.701Z,8.80
2019-03-01T02:02:10.215Z,8.80
2019-03-01T02:04:36.773Z,8.70
2019-03-01T02:07:03.336Z,8.80
2019-03-01T02:09:29.855Z,8.80
2019-03-01T02:11:56.538Z,8.80
2019-03-01T02:14:23.092Z,8.80
2019-03-01T02:16:49.611Z,8.80
2019-03-01T02:19:16.580Z,8.80
2019-03-01T02:21:43.108Z,8.80
2019-03-01T02:24:09.680Z,8.80
2019-03-01T02:26:36.280Z,8.80
2019-03-01T02:29:02.836Z,8.70
2019-03-01T02:31:29.358Z,8.70
2019-03-01T02:33:55.913Z,8.70
2019-03-01T02:36:22.477Z,8.70
2019-03-01T02:38:48.989Z,8.70
2019-03-01T02:41:15.541Z,8.80
2019-03-01T02:43:42.099Z,8.80
2019-03-01T02:46:08.611Z,8.80
2019-03-01T02:48:35.175Z,8.70
2019-03-01T02:51:01.804Z,8.70
2019-03-01T02:53:30.641Z,8.70
2019-03-01T02:55:57.376Z,8.80
2019-03-01T02:58:23.932Z,8.80
2019-03-01T03:00:50.752Z,8.70
2019-03-01T03:03:17.320Z,8.70
2019-03-01T03:06:02.337Z,8.70
2019-03-01T03:08:29.001Z,8.70
2019-03-01T03:10:55.522Z,8.70
2019-03-01T03:13:22.077Z,8.60
2019-03-01T03:15:50.596Z,8.60
2019-03-01T03:18:17.163Z,8.60
2019-03-01T03:20:43.678Z,8.50
2019-03-01T03:23:10.193Z,8.50
2019-03-01T03:25:36.797Z,8.60
2019-03-01T03:28:03.310Z,8.60
2019-03-01T03:30:29.973Z,8.60
2019-03-01T03:32:56.575Z,8.70
2019-03-01T03:35:23.091Z,8.70
2019-03-01T03:37:49.648Z,8.70
2019-03-01T03:40:16.165Z,8.70
2019-03-01T03:42:42.725Z,8.70
2019-03-01T03:45:10.635Z,8.60
2019-03-01T03:47:37.208Z,8.60
2019-03-01T03:50:05.553Z,8.40
2019-03-01T03:52:32.072Z,8.40
2019-03-01T03:54:59.126Z,8.30
2019-03-01T03:57:25.649Z,8.20
2019-03-01T03:59:52.213Z,8.20
2019-03-01T04:02:18.769Z,8.20
2019-03-01T04:04:45.288Z,8.20
2019-03-01T04:07:11.856Z,8.30
2019-03-01T04:09:38.408Z,8.30
2019-03-01T04:12:05.139Z,8.30
2019-03-01T04:14:31.691Z,8.20
2019-03-01T04:16:58.208Z,8.00
2019-03-01T04:19:26.168Z,8.00
2019-03-01T04:21:52.690Z,7.90
2019-03-01T04:24:19.242Z,7.80
2019-03-01T04:26:45.792Z,7.80
2019-03-01T04:29:12.353Z,7.80
2019-03-01T04:31:38.916Z,7.80
2019-03-01T04:34:06.107Z,7.70
2019-03-01T04:36:32.693Z,7.70
2019-03-01T04:38:59.209Z,7.60
2019-03-01T04:41:25.764Z,7.60
2019-03-01T04:43:52.281Z,7.60
2019-03-01T04:46:18.833Z,7.60
2019-03-01T04:48:45.352Z,7.60
2019-03-01T04:51:11.868Z,7.50
2019-03-01T04:53:38.428Z,7.60
2019-03-01T04:56:04.940Z,7.50
2019-03-01T04:58:31.501Z,7.50
2019-03-01T05:00:58.117Z,7.50
2019-03-01T05:03:24.672Z,7.50
2019-03-01T05:05:51.184Z,7.50
2019-03-01T05:08:17.732Z,7.40
2019-03-01T05:10:44.294Z,7.40
2019-03-01T05:13:10.817Z,7.40
2019-03-01T05:15:37.372Z,7.40
2019-03-01T05:18:03.902Z,7.50
2019-03-01T05:20:31.171Z,7.50
2019-03-01T05:22:58.713Z,7.50
2019-03-01T05:25:25.233Z,7.50
2019-03-01T05:27:51.821Z,7.60
2019-03-01T05:30:18.341Z,7.60
2019-03-01T05:32:44.858Z,7.70
2019-03-01T05:35:11.416Z,7.70
2019-03-01T05:37:37.973Z,7.70
2019-03-01T05:40:05.799Z,7.70
2019-03-01T05:42:32.349Z,7.70
2019-03-01T05:45:00.494Z,7.70
2019-03-01T05:47:27.223Z,7.70
2019-03-01T05:49:53.780Z,7.60
2019-03-01T05:52:20.295Z,7.60
2019-03-01T05:54:46.853Z,7.70
2019-03-01T05:57:13.380Z,7.70
2019-03-01T05:59:39.924Z,7.70
2019-03-01T06:02:14.249Z,7.70
2019-03-01T06:04:42.620Z,7.60
2019-03-01T06:07:20.124Z,7.60
2019-03-01T06:10:03.628Z,7.60
2019-03-01T06:12:34.996Z,7.50
2019-03-01T06:15:09.386Z,7.40
2019-03-01T06:17:43.609Z,7.30
2019-03-01T06:20:14.742Z,7.20
2019-03-01T06:22:43.090Z,7.10
2019-03-01T06:25:14.485Z,7.10
2019-03-01T06:27:54.792Z,7.00
2019-03-01T06:30:29.223Z,7.00
2019-03-01T06:33:00.692Z,7.00
2019-03-01T06:35:40.898Z,7.00
2019-03-01T06:38:15.967Z,7.00
2019-03-01T06:40:48.772Z,7.00
2019-03-01T06:43:17.128Z,7.10
2019-03-01T06:45:54.429Z,7.10
2019-03-01T06:48:25.638Z,7.20
2019-03-01T06:50:54.012Z,7.30
2019-03-01T06:53:20.590Z,7.30
2019-03-01T06:55:47.609Z,7.30
2019-03-01T06:58:15.869Z,7.20
2019-03-01T07:00:50.249Z,7.20
2019-03-01T07:03:12.603Z,7.20
2019-03-01T07:05:39.163Z,7.30
2019-03-01T07:08:05.943Z,7.30
2019-03-01T07:10:32.463Z,7.30
2019-03-01T07:12:59.017Z,7.30
2019-03-01T07:15:25.532Z,7.40
2019-03-01T07:17:52.094Z,7.40
2019-03-01T07:20:18.640Z,7.50
2019-03-01T07:22:45.260Z,7.50
2019-03-01T07:25:11.817Z,7.50
2019-03-01T07:27:38.371Z,7.60
2019-03-01T07:30:06.760Z,7.60
2019-03-01T07:32:33.313Z,7.60
2019-03-01T07:34:59.828Z,7.60
2019-03-01T07:37:26.381Z,7.50
2019-03-01T07:39:52.893Z,7.50
2019-03-01T07:42:19.480Z,7.50
2019-03-01T07:44:45.996Z,7.60
2019-03-01T07:47:12.547Z,7.50
2019-03-01T07:49:39.090Z,7.50
2019-03-01T07:52:05.954Z,7.50
2019-03-01T07:54:32.561Z,7.50
2019-03-01T07:56:59.090Z,7.60
2019-03-01T07:59:25.641Z,7.70
2019-03-01T08:01:52.602Z,7.60
2019-03-01T08:04:19.116Z,7.60
2019-03-01T08:06:48.707Z,7.50
2019-03-01T08:09:13.992Z,7.50
2019-03-01T08:11:40.548Z,7.30
2019-03-01T08:14:07.064Z,7.30
2019-03-01T08:16:33.623Z,7.20
2019-03-01T08:19:00.176Z,7.10
2019-03-01T08:21:26.696Z,7.00
2019-03-01T08:23:53.250Z,7.00
2019-03-01T08:26:19.769Z,7.00
2019-03-01T08:28:46.756Z,7.00
2019-03-01T08:31:13.317Z,7.00
2019-03-01T08:33:43.394Z,6.90
2019-03-01T08:36:08.193Z,6.90
2019-03-01T08:38:34.725Z,7.00
2019-03-01T08:41:01.278Z,6.90
2019-03-01T08:43:27.796Z,6.90
2019-03-01T08:45:54.352Z,7.00
2019-03-01T08:48:20.876Z,7.00
2019-03-01T08:50:47.430Z,7.00
2019-03-01T08:53:15.258Z,7.00
2019-03-01T08:55:42.300Z,6.90
2019-03-01T08:58:08.825Z,6.90
2019-03-01T09:00:42.361Z,6.80
2019-03-01T09:03:10.685Z,6.80
2019-03-01T09:05:37.244Z,6.80
2019-03-01T09:08:04.666Z,6.90
2019-03-01T09:10:32.645Z,6.80
2019-03-01T09:12:59.537Z,6.70
2019-03-01T09:15:26.096Z,6.70
2019-03-01T09:17:52.608Z,6.80
2019-03-01T09:20:19.264Z,6.80
2019-03-01T09:22:45.780Z,6.80
2019-03-01T09:25:13.248Z,6.80
2019-03-01T09:27:39.769Z,6.80
2019-03-01T09:30:13.934Z,6.80
2019-03-01T09:32:40.455Z,6.80
2019-03-01T09:35:13.552Z,6.70
2019-03-01T09:37:40.110Z,6.70
2019-03-01T09:40:06.633Z,6.70
2019-03-01T09:42:33.189Z,6.70
2019-03-01T09:44:59.703Z,6.80
2019-03-01T09:47:26.256Z,6.80
2019-03-01T09:49:52.777Z,6.80
2019-03-01T09:52:20.418Z,6.80
2019-03-01T09:54:47.653Z,6.90
2019-03-01T09:57:15.616Z,7.00
2019-03-01T09:59:42.526Z,7.10
2019-03-01T10:02:09.085Z,7.20
2019-03-01T10:04:35.601Z,7.30
2019-03-01T10:07:02.156Z,7.30
2019-03-01T10:09:28.688Z,7.40
2019-03-01T10:11:55.233Z,7.40
2019-03-01T10:14:21.894Z,7.40
2019-03-01T10:16:50.212Z,7.40
2019-03-01T10:19:16.768Z,7.50
2019-03-01T10:21:43.289Z,7.50
2019-03-01T10:24:09.849Z,7.40
2019-03-01T10:26:36.372Z,7.40
2019-03-01T10:29:02.965Z,7.30
2019-03-01T10:31:29.801Z,7.30
2019-03-01T10:33:56.298Z,7.20
2019-03-01T10:36:22.853Z,7.10
2019-03-01T10:38:49.408Z,7.10
2019-03-01T10:41:15.928Z,7.30
2019-03-01T10:43:42.485Z,7.30
2019-03-01T10:46:09.001Z,7.20
2019-03-01T10:48:35.657Z,7.30
2019-03-01T10:51:02.241Z,7.30
2019-03-01T10:53:28.852Z,7.40
2019-03-01T10:55:55.400Z,7.40
2019-03-01T10:58:21.917Z,7.40
2019-03-01T11:00:48.473Z,7.50
2019-03-01T11:03:15.038Z,7.60
2019-03-01T11:05:41.568Z,7.60
2019-03-01T11:08:08.113Z,7.60
2019-03-01T11:10:36.429Z,7.70
2019-03-01T11:13:04.089Z,7.80
2019-03-01T11:15:30.641Z,7.90
2019-03-01T11:17:57.161Z,7.90
2019-03-01T11:20:23.718Z,8.00
2019-03-01T11:22:50.240Z,7.90
2019-03-01T11:25:20.855Z,7.80
2019-03-01T11:27:47.401Z,7.60
2019-03-01T11:30:15.022Z,7.60
2019-03-01T11:32:41.617Z,7.60
2019-03-01T11:35:08.332Z,7.60
2019-03-01T11:37:34.895Z,7.50
2019-03-01T11:40:01.409Z,7.50
2019-03-01T11:42:27.986Z,7.50
2019-03-01T11:44:54.506Z,7.50
2019-03-01T11:47:21.063Z,7.60
2019-03-01T11:49:47.581Z,7.60
2019-03-01T11:52:14.133Z,7.60
2019-03-01T11:54:40.653Z,7.40
2019-03-01T11:57:07.208Z,7.20
2019-03-01T11:59:33.731Z,7.10
2019-03-01T12:02:00.242Z,7.20
2019-03-01T12:04:26.798Z,7.20
2019-03-01T12:06:53.358Z,7.20
2019-03-01T12:09:19.885Z,7.30
2019-03-01T12:11:46.445Z,7.30
2019-03-01T12:14:12.964Z,7.20
2019-03-01T12:16:39.522Z,7.20
2019-03-01T12:19:06.049Z,7.20
2019-03-01T12:21:32.750Z,7.20
2019-03-01T12:23:59.434Z,7.10
2019-03-01T12:26:26.029Z,7.10
2019-03-01T12:28:52.716Z,7.10
2019-03-01T12:31:20.229Z,7.00
2019-03-01T12:33:46.790Z,7.00
2019-03-01T12:36:13.345Z,7.00
2019-03-01T12:38:39.953Z,7.00
2019-03-01T12:41:06.492Z,7.00
2019-03-01T12:43:33.244Z,7.10
2019-03-01T12:45:59.816Z,7.10
2019-03-01T12:48:26.342Z,7.20
2019-03-01T12:50:52.892Z,7.10
2019-03-01T12:53:19.596Z,7.20
2019-03-01T12:55:47.780Z,7.40
2019-03-01T12:58:19.405Z,7.40
2019-03-01T13:00:42.623Z,7.40
2019-03-01T13:03:09.896Z,7.40
2019-03-01T13:05:36.552Z,7.30
2019-03-01T13:08:03.196Z,7.30
2019-03-01T13:10:30.722Z,7.20
2019-03-01T13:12:58.706Z,7.30
2019-03-01T13:15:25.629Z,7.30
2019-03-01T13:17:52.160Z,7.30
2019-03-01T13:20:18.708Z,7.30
2019-03-01T13:22:45.269Z,7.30
2019-03-01T13:25:12.684Z,7.30
2019-03-01T13:27:39.241Z,7.40
2019-03-01T13:30:10.169Z,7.30
2019-03-01T13:32:36.726Z,7.40
2019-03-01T13:35:04.842Z,7.40
2019-03-01T13:37:31.396Z,7.50
2019-03-01T13:39:58.617Z,7.60
2019-03-01T13:42:25.175Z,7.70
2019-03-01T13:44:51.724Z,7.70
2019-03-01T13:47:18.236Z,7.70
2019-03-01T13:49:44.799Z,7.80
2019-03-01T13:52:11.327Z,7.80
2019-03-01T13:54:37.886Z,7.90
2019-03-01T13:57:04.400Z,7.90
2019-03-01T13:59:30.963Z,7.90
2019-03-01T14:01:57.576Z,7.90
2019-03-01T14:04:24.136Z,8.00
2019-03-01T14:06:50.692Z,8.00
2019-03-01T14:09:17.218Z,8.00
2019-03-01T14:11:43.773Z,8.10
2019-03-01T14:14:10.297Z,8.20
2019-03-01T14:16:36.854Z,8.10
2019-03-01T14:19:03.371Z,8.10
2019-03-01T14:21:32.962Z,8.10
2019-03-01T14:23:58.328Z,8.10
2019-03-01T14:26:24.845Z,8.10
2019-03-01T14:28:51.400Z,8.10
2019-03-01T14:31:17.917Z,8.10
2019-03-01T14:33:44.432Z,8.00
2019-03-01T14:36:10.984Z,8.00
2019-03-01T14:38:37.506Z,7.90
2019-03-01T14:41:04.065Z,7.80
2019-03-01T14:43:30.585Z,7.90
2019-03-01T14:45:57.142Z,7.90
2019-03-01T14:48:23.684Z,7.80
2019-03-01T14:50:50.212Z,7.80
2019-03-01T14:53:16.778Z,7.80
2019-03-01T14:55:48.104Z,7.80
2019-03-01T14:58:19.029Z,7.80
2019-03-01T15:00:58.956Z,7.80
2019-03-01T15:03:27.326Z,7.90
2019-03-01T15:05:53.845Z,7.90
2019-03-01T15:08:20.405Z,7.90
2019-03-01T15:10:46.925Z,7.90
2019-03-01T15:13:13.489Z,7.80
2019-03-01T15:15:40.105Z,7.80
2019-03-01T15:18:06.860Z,7.80
2019-03-01T15:20:33.412Z,7.80
2019-03-01T15:22:59.935Z,7.70
2019-03-01T15:25:26.525Z,7.70
2019-03-01T15:27:53.047Z,7.70
2019-03-01T15:30:19.606Z,7.70
2019-03-01T15:32:46.165Z,7.70
2019-03-01T15:35:12.680Z,7.60
2019-03-01T15:37:39.239Z,7.70
2019-03-01T15:40:07.557Z,7.60
2019-03-01T15:42:34.079Z,7.50
2019-03-01T15:45:01.649Z,7.50
2019-03-01T15:47:28.947Z,7.50
2019-03-01T15:49:55.508Z,7.50
2019-03-01T15:52:22.033Z,7.50
2019-03-01T15:54:48.592Z,7.40
2019-03-01T15:57:15.310Z,7.40
2019-03-01T15:59:44.370Z,7.40
2019-03-01T16:02:11.791Z,7.30
2019-03-01T16:04:38.345Z,7.30
2019-03-01T16:07:04.900Z,7.30
2019-03-01T16:09:31.416Z,7.30
2019-03-01T16:11:57.985Z,7.30
2019-03-01T16:14:25.091Z,7.30
2019-03-01T16:16:51.667Z,7.30
2019-03-01T16:19:18.255Z,7.30
2019-03-01T16:21:44.768Z,7.30
2019-03-01T16:24:11.329Z,7.30
2019-03-01T16:26:37.850Z,7.30
2019-03-01T16:29:07.307Z,7.30
2019-03-01T16:31:32.931Z,7.30
2019-03-01T16:34:00.955Z,7.30
2019-03-01T16:36:30.277Z,7.20
2019-03-01T16:38:56.863Z,7.20
2019-03-01T16:41:24.417Z,7.20
2019-03-01T16:43:50.939Z,7.20
2019-03-01T16:46:17.493Z,7.10
2019-03-01T16:48:44.031Z,7.10
2019-03-01T16:51:10.579Z,7.10
2019-03-01T16:53:40.504Z,7.10
2019-03-01T16:56:05.462Z,7.00
2019-03-01T16:58:32.042Z,7.00
2019-03-01T17:00:58.572Z,7.00
2019-03-01T17:03:25.157Z,7.00
2019-03-01T17:05:51.725Z,6.90
2019-03-01T17:08:18.236Z,6.90
2019-03-01T17:10:44.797Z,6.90
2019-03-01T17:13:11.357Z,6.80
2019-03-01T17:15:38.572Z,6.80
2019-03-01T17:18:05.125Z,6.80
2019-03-01T17:20:37.421Z,6.80
2019-03-01T17:23:03.063Z,6.70
2019-03-01T17:25:28.410Z,6.70
2019-03-01T17:27:54.989Z,6.70
2019-03-01T17:30:22.146Z,6.60
2019-03-01T17:32:48.666Z,6.60
2019-03-01T17:35:15.316Z,6.60
2019-03-01T17:37:41.839Z,6.60
2019-03-01T17:40:09.230Z,6.60
2019-03-01T17:42:35.744Z,6.60
2019-03-01T17:45:03.007Z,6.60
2019-03-01T17:47:29.562Z,6.60
2019-03-01T17:49:56.081Z,6.70
2019-03-01T17:52:22.639Z,6.80
2019-03-01T17:54:49.159Z,6.70
2019-03-01T17:57:15.722Z,6.80
2019-03-01T17:59:44.605Z,6.70
2019-03-01T18:02:12.181Z,6.70
2019-03-01T18:04:39.709Z,6.70
2019-03-01T18:07:06.225Z,6.70
2019-03-01T18:09:32.983Z,6.70
2019-03-01T18:11:59.638Z,6.70
2019-03-01T18:14:26.304Z,6.80
2019-03-01T18:16:52.929Z,6.70
2019-03-01T18:19:19.488Z,6.70
2019-03-01T18:21:46.437Z,6.70
2019-03-01T18:24:15.214Z,6.70
2019-03-01T18:26:41.817Z,6.80
2019-03-01T18:29:08.539Z,6.80
2019-03-01T18:31:35.636Z,6.70
2019-03-01T18:34:02.261Z,6.70
2019-03-01T18:36:31.542Z,6.70
2019-03-01T18:38:57.141Z,6.70
2019-03-01T18:41:24.091Z,6.70
2019-03-01T18:43:52.021Z,6.70
2019-03-01T18:46:20.455Z,6.70
2019-03-01T18:48:47.036Z,6.70
2019-03-01T18:51:13.553Z,6.70
2019-03-01T18:53:40.108Z,6.70
2019-03-01T18:56:06.629Z,6.70
2019-03-01T18:58:33.184Z,6.70
2019-03-01T19:00:59.741Z,6.70
2019-03-01T19:03:26.261Z,6.80
2019-03-01T19:05:52.817Z,6.80
2019-03-01T19:08:19.335Z,6.70
2019-03-01T19:10:53.964Z,6.60
2019-03-01T19:13:14.221Z,6.60
2019-03-01T19:15:40.780Z,6.60
2019-03-01T19:18:07.339Z,6.70
2019-03-01T19:20:37.972Z,6.60
2019-03-01T19:23:04.060Z,6.50
2019-03-01T19:25:30.581Z,6.50
2019-03-01T19:27:57.139Z,6.40
2019-03-01T19:30:24.158Z,6.40
2019-03-01T19:32:50.713Z,6.40
2019-03-01T19:35:17.371Z,6.40
2019-03-01T19:37:45.797Z,6.50
2019-03-01T19:40:13.392Z,6.50
2019-03-01T19:42:39.958Z,6.40
2019-03-01T19:45:07.812Z,6.40
2019-03-01T19:47:34.334Z,6.40
2019-03-01T19:50:00.896Z,6.40
2019-03-01T19:52:27.408Z,6.50
2019-03-01T19:54:53.997Z,6.50
2019-03-01T19:57:20.552Z,6.50
2019-03-01T19:59:49.655Z,6.60
2019-03-01T20:02:18.712Z,6.60
2019-03-01T20:04:45.368Z,6.60
2019-03-01T20:07:12.280Z,6.60
2019-03-01T20:09:39.754Z,6.60
2019-03-01T20:12:07.060Z,6.60
2019-03-01T20:14:34.513Z,6.60
2019-03-01T20:17:01.045Z,6.60
2019-03-01T20:19:27.969Z,6.60
2019-03-01T20:21:54.709Z,6.60
2019-03-01T20:24:21.457Z,6.60
2019-03-01T20:26:48.972Z,6.60
2019-03-01T20:29:15.525Z,6.60
2019-03-01T20:31:42.523Z,6.60
2019-03-01T20:34:09.344Z,6.60
2019-03-01T20:36:37.159Z,6.60
2019-03-01T20:39:03.911Z,6.60
2019-03-01T20:41:30.597Z,6.60
2019-03-01T20:43:57.124Z,6.60
2019-03-01T20:46:24.467Z,6.60
2019-03-01T20:48:51.013Z,6.60
2019-03-01T20:51:17.569Z,6.70
2019-03-01T20:53:45.706Z,6.60
2019-03-01T20:56:13.842Z,6.60
2019-03-01T20:58:40.777Z,6.60
2019-03-01T21:01:07.389Z,6.60
2019-03-01T21:03:34.308Z,6.60
2019-03-01T21:06:01.715Z,6.60
2019-03-01T21:08:29.841Z,6.60
2019-03-01T21:10:56.441Z,6.60
2019-03-01T21:13:22.961Z,6.60
2019-03-01T21:15:49.521Z,6.60
2019-03-01T21:18:16.045Z,6.60
2019-03-01T21:20:42.841Z,6.70
2019-03-01T21:23:11.802Z,6.60
2019-03-01T21:25:39.756Z,6.60
2019-03-01T21:28:06.105Z,6.60
2019-03-01T21:30:33.322Z,6.60
2019-03-01T21:32:59.917Z,6.60
2019-03-01T21:35:26.437Z,6.60
2019-03-01T21:37:52.992Z,6.60
2019-03-01T21:40:19.684Z,6.50
2019-03-01T21:42:46.281Z,6.60
2019-03-01T21:45:14.231Z,6.60
2019-03-01T21:47:40.960Z,6.50
2019-03-01T21:50:07.833Z,6.50
2019-03-01T21:52:34.458Z,6.50
2019-03-01T21:55:01.149Z,6.50
2019-03-01T21:57:31.108Z,6.50
2019-03-01T21:59:56.835Z,6.50
2019-03-01T22:02:23.453Z,6.50
2019-03-01T22:04:50.102Z,6.50
2019-03-01T22:07:16.596Z,6.50
2019-03-01T22:09:43.173Z,6.50
2019-03-01T22:12:09.800Z,6.40
2019-03-01T22:14:36.342Z,6.50
2019-03-01T22:17:02.917Z,6.50
2019-03-01T22:19:30.546Z,6.50
2019-03-01T22:21:58.494Z,6.40
2019-03-01T22:24:26.500Z,6.40
2019-03-01T22:26:53.316Z,6.40
2019-03-01T22:29:19.872Z,6.40
2019-03-01T22:31:46.555Z,6.40
2019-03-01T22:34:13.065Z,6.40
2019-03-01T22:36:39.737Z,6.50
2019-03-01T22:39:06.248Z,6.40
2019-03-01T22:41:35.567Z,6.40
2019-03-01T22:44:01.683Z,6.50
2019-03-01T22:46:28.402Z,6.40
2019-03-01T22:48:56.681Z,6.40
2019-03-01T22:51:23.304Z,6.40
2019-03-01T22:53:51.962Z,6.40
2019-03-01T22:56:18.502Z,6.30
2019-03-01T22:58:45.211Z,6.30
2019-03-01T23:01:12.033Z,6.30
2019-03-01T23:03:38.559Z,6.30
2019-03-01T23:06:05.109Z,6.40
2019-03-01T23:08:35.195Z,6.40
2019-03-01T23:11:00.170Z,6.40
2019-03-01T23:13:26.838Z,6.40
2019-03-01T23:15:53.445Z,6.40
2019-03-01T23:18:20.162Z,6.40
2019-03-01T23:20:46.776Z,6.40
2019-03-01T23:23:13.473Z,6.40
2019-03-01T23:25:42.923Z,6.40
2019-03-01T23:28:09.296Z,6.40
2019-03-01T23:30:36.075Z,6.50
2019-03-01T23:33:02.668Z,6.50
2019-03-01T23:35:29.340Z,6.50
2019-03-01T23:37:55.992Z,6.50
2019-03-01T23:40:22.536Z,6.50
2019-03-01T23:42:49.092Z,6.50
2019-03-01T23:45:17.451Z,6.50
2019-03-01T23:47:43.963Z,6.50
2019-03-01T23:50:10.980Z,6.50
2019-03-01T23:52:37.537Z,6.50
2019-03-01T23:55:05.853Z,6.50
2019-03-01T23:57:32.368Z,6.50
